sensor_id;sensor_type;location;lat;lon;timestamp;P1;durP1;ratioP1;P2;durP2;ratioP2
5357;SDS011;2702;51.014;7.170;2023-08-06T15:28:09;3.00;;;2.70;;
5357;SDS011;2702;51.014;7.170;2023-08-06T15:30:36;4.60;;;4.20;;
5357;SDS011;2702;51.014;7.170;2023-08-06T15:33:02;6.73;;;5.80;;
5357;SDS011;2702;51.014;7.170;2023-08-06T15:35:28;7.37;;;6.77;;
5357;SDS011;2702;51.014;7.170;2023-08-06T15:37:54;8.23;;;6.80;;
5357;SDS011;2702;51.014;7.170;2023-08-06T15:40:20;6.80;;;6.07;;
5357;SDS011;2702;51.014;7.170;2023-08-06T15:42:47;6.73;;;4.90;;
5357;SDS011;2702;51.014;7.170;2023-08-06T15:45:14;6.10;;;5.60;;
5357;SDS011;2702;51.014;7.170;2023-08-06T15:47:40;5.73;;;4.90;;
5357;SDS011;2702;51.014;7.170;2023-08-06T15:50:07;5.23;;;4.53;;
5357;SDS011;2702;51.014;7.170;2023-08-06T15:52:34;5.30;;;4.87;;
5357;SDS011;2702;51.014;7.170;2023-08-06T15:55:04;4.60;;;3.77;;
5357;SDS011;2702;51.014;7.170;2023-08-06T15:57:32;4.70;;;3.90;;
5357;SDS011;2702;51.014;7.170;2023-08-06T15:59:58;3.90;;;3.60;;
5357;SDS011;2702;51.014;7.170;2023-08-06T16:02:25;3.50;;;3.20;;
5357;SDS011;2702;51.014;7.170;2023-08-06T16:04:53;3.27;;;2.97;;
5357;SDS011;2702;51.014;7.170;2023-08-06T16:07:20;3.50;;;3.20;;
5357;SDS011;2702;51.014;7.170;2023-08-06T16:09:49;3.93;;;3.63;;
5357;SDS011;2702;51.014;7.170;2023-08-06T16:12:16;4.90;;;3.70;;
5357;SDS011;2702;51.014;7.170;2023-08-06T16:14:45;3.93;;;3.60;;
5357;SDS011;2702;51.014;7.170;2023-08-06T16:17:11;4.37;;;3.90;;
5357;SDS011;2702;51.014;7.170;2023-08-06T16:19:38;5.30;;;3.90;;
5357;SDS011;2702;51.014;7.170;2023-08-06T16:22:04;4.27;;;3.87;;
5357;SDS011;2702;51.014;7.170;2023-08-06T16:24:30;4.93;;;4.43;;
5357;SDS011;2702;51.014;7.170;2023-08-06T16:26:57;5.20;;;4.50;;
5357;SDS011;2702;51.014;7.170;2023-08-06T16:29:23;6.33;;;4.70;;
5357;SDS011;2702;51.014;7.170;2023-08-06T16:31:49;6.63;;;4.67;;
5357;SDS011;2702;51.014;7.170;2023-08-06T16:34:16;4.57;;;4.10;;
5357;SDS011;2702;51.014;7.170;2023-08-06T16:36:42;4.40;;;4.00;;
5357;SDS011;2702;51.014;7.170;2023-08-06T16:39:08;4.17;;;3.80;;
5357;SDS011;2702;51.014;7.170;2023-08-06T16:41:35;6.57;;;3.20;;
5357;SDS011;2702;51.014;7.170;2023-08-06T16:44:01;3.63;;;3.33;;
5357;SDS011;2702;51.014;7.170;2023-08-06T16:46:30;4.27;;;3.80;;
5357;SDS011;2702;51.014;7.170;2023-08-06T16:48:57;3.80;;;3.50;;
5357;SDS011;2702;51.014;7.170;2023-08-06T16:51:24;3.83;;;3.47;;
5357;SDS011;2702;51.014;7.170;2023-08-06T16:53:50;3.73;;;3.30;;
5357;SDS011;2702;51.014;7.170;2023-08-06T16:56:16;4.40;;;2.97;;
5357;SDS011;2702;51.014;7.170;2023-08-06T16:58:42;3.43;;;3.00;;
5357;SDS011;2702;51.014;7.170;2023-08-06T17:01:09;2.90;;;2.70;;
5357;SDS011;2702;51.014;7.170;2023-08-06T17:03:35;4.60;;;2.63;;
5357;SDS011;2702;51.014;7.170;2023-08-06T17:06:02;3.03;;;2.30;;
5357;SDS011;2702;51.014;7.170;2023-08-06T17:08:28;2.17;;;1.97;;
5357;SDS011;2702;51.014;7.170;2023-08-06T17:11:00;2.67;;;2.40;;
5357;SDS011;2702;51.014;7.170;2023-08-06T17:13:28;2.53;;;1.80;;
5357;SDS011;2702;51.014;7.170;2023-08-06T17:15:55;2.40;;;1.70;;
5357;SDS011;2702;51.014;7.170;2023-08-06T17:18:22;2.30;;;1.60;;
5357;SDS011;2702;51.014;7.170;2023-08-06T17:20:49;2.03;;;1.57;;
5357;SDS011;2702;51.014;7.170;2023-08-06T17:23:16;1.70;;;1.60;;
5357;SDS011;2702;51.014;7.170;2023-08-06T17:25:42;1.50;;;1.40;;
5357;SDS011;2702;51.014;7.170;2023-08-06T17:28:09;1.67;;;1.57;;
5357;SDS011;2702;51.014;7.170;2023-08-06T17:30:35;1.80;;;1.50;;
5357;SDS011;2702;51.014;7.170;2023-08-06T17:33:04;2.13;;;1.93;;
5357;SDS011;2702;51.014;7.170;2023-08-06T17:35:31;1.53;;;1.10;;
5357;SDS011;2702;51.014;7.170;2023-08-06T17:38:00;3.50;;;1.37;;
5357;SDS011;2702;51.014;7.170;2023-08-06T17:40:27;1.77;;;1.37;;
5357;SDS011;2702;51.014;7.170;2023-08-06T17:42:54;1.53;;;1.43;;
5357;SDS011;2702;51.014;7.170;2023-08-06T17:45:20;1.57;;;1.47;;
5357;SDS011;2702;51.014;7.170;2023-08-06T17:47:48;1.73;;;1.63;;
5357;SDS011;2702;51.014;7.170;2023-08-06T17:50:15;2.73;;;2.10;;
5357;SDS011;2702;51.014;7.170;2023-08-06T17:52:41;1.90;;;1.70;;
5357;SDS011;2702;51.014;7.170;2023-08-06T17:55:07;1.73;;;1.63;;
5357;SDS011;2702;51.014;7.170;2023-08-06T17:57:34;2.07;;;1.90;;
5357;SDS011;2702;51.014;7.170;2023-08-06T18:00:00;2.40;;;2.13;;
5357;SDS011;2702;51.014;7.170;2023-08-06T18:02:27;3.00;;;2.70;;
5357;SDS011;2702;51.014;7.170;2023-08-06T18:04:53;3.20;;;2.73;;
5357;SDS011;2702;51.014;7.170;2023-08-06T18:07:19;3.13;;;2.93;;
5357;SDS011;2702;51.014;7.170;2023-08-06T18:09:45;3.13;;;2.93;;
5357;SDS011;2702;51.014;7.170;2023-08-06T18:12:12;3.00;;;2.80;;
5357;SDS011;2702;51.014;7.170;2023-08-06T18:14:38;2.80;;;2.60;;
5357;SDS011;2702;51.014;7.170;2023-08-06T18:17:05;3.90;;;3.50;;
5357;SDS011;2702;51.014;7.170;2023-08-06T18:19:31;2.90;;;2.70;;
5357;SDS011;2702;51.014;7.170;2023-08-06T18:21:57;3.20;;;2.77;;
5357;SDS011;2702;51.014;7.170;2023-08-06T18:24:25;2.87;;;2.60;;
5357;SDS011;2702;51.014;7.170;2023-08-06T18:26:52;3.43;;;2.97;;
5357;SDS011;2702;51.014;7.170;2023-08-06T18:29:18;4.20;;;3.10;;
5357;SDS011;2702;51.014;7.170;2023-08-06T18:31:45;3.50;;;3.20;;
5357;SDS011;2702;51.014;7.170;2023-08-06T18:34:12;2.63;;;2.43;;
5357;SDS011;2702;51.014;7.170;2023-08-06T18:36:38;3.60;;;3.27;;
5357;SDS011;2702;51.014;7.170;2023-08-06T18:39:04;3.63;;;3.03;;
5357;SDS011;2702;51.014;7.170;2023-08-06T18:41:31;3.43;;;3.00;;
5357;SDS011;2702;51.014;7.170;2023-08-06T18:43:57;3.50;;;3.20;;
5357;SDS011;2702;51.014;7.170;2023-08-06T18:46:23;3.03;;;2.83;;
5357;SDS011;2702;51.014;7.170;2023-08-06T18:48:50;3.97;;;2.97;;
5357;SDS011;2702;51.014;7.170;2023-08-06T18:51:16;2.37;;;2.23;;
5357;SDS011;2702;51.014;7.170;2023-08-06T18:53:45;3.03;;;2.53;;
5357;SDS011;2702;51.014;7.170;2023-08-06T18:56:11;4.97;;;3.00;;
5357;SDS011;2702;51.014;7.170;2023-08-06T18:58:38;3.20;;;2.93;;
5357;SDS011;2702;51.014;7.170;2023-08-06T19:01:04;4.13;;;2.90;;
5357;SDS011;2702;51.014;7.170;2023-08-06T19:03:30;4.10;;;3.50;;
5357;SDS011;2702;51.014;7.170;2023-08-06T19:06:00;5.90;;;4.20;;
5357;SDS011;2702;51.014;7.170;2023-08-06T19:08:30;4.70;;;3.37;;
5357;SDS011;2702;51.014;7.170;2023-08-06T19:10:56;5.70;;;3.70;;
5357;SDS011;2702;51.014;7.170;2023-08-06T19:13:22;5.33;;;4.20;;
5357;SDS011;2702;51.014;7.170;2023-08-06T19:15:48;6.23;;;3.73;;
5357;SDS011;2702;51.014;7.170;2023-08-06T19:18:14;5.43;;;4.20;;
5357;SDS011;2702;51.014;7.170;2023-08-06T19:20:43;5.10;;;4.33;;
5357;SDS011;2702;51.014;7.170;2023-08-06T19:23:10;5.20;;;3.60;;
5357;SDS011;2702;51.014;7.170;2023-08-06T19:25:45;7.33;;;3.50;;
5357;SDS011;2702;51.014;7.170;2023-08-06T19:28:13;4.60;;;3.13;;
5357;SDS011;2702;51.014;7.170;2023-08-06T19:30:42;4.80;;;3.07;;
5357;SDS011;2702;51.014;7.170;2023-08-06T19:33:09;4.13;;;3.00;;
5357;SDS011;2702;51.014;7.170;2023-08-06T19:35:48;3.90;;;3.27;;
5357;SDS011;2702;51.014;7.170;2023-08-06T19:38:17;5.53;;;3.00;;
5357;SDS011;2702;51.014;7.170;2023-08-06T19:40:46;5.13;;;2.80;;
5357;SDS011;2702;51.014;7.170;2023-08-06T19:43:12;3.83;;;2.27;;
5357;SDS011;2702;51.014;7.170;2023-08-06T19:45:39;6.60;;;3.33;;
5357;SDS011;2702;51.014;7.170;2023-08-06T19:48:05;5.20;;;2.40;;
5357;SDS011;2702;51.014;7.170;2023-08-06T19:50:32;3.40;;;2.43;;
5357;SDS011;2702;51.014;7.170;2023-08-06T19:52:58;3.70;;;2.30;;
5357;SDS011;2702;51.014;7.170;2023-08-06T19:55:25;5.83;;;2.63;;
5357;SDS011;2702;51.014;7.170;2023-08-06T19:57:51;6.53;;;2.83;;
5357;SDS011;2702;51.014;7.170;2023-08-06T20:00:17;9.53;;;3.17;;
5357;SDS011;2702;51.014;7.170;2023-08-06T20:02:44;8.63;;;3.07;;
5357;SDS011;2702;51.014;7.170;2023-08-06T20:05:10;3.00;;;1.97;;
5357;SDS011;2702;51.014;7.170;2023-08-06T20:07:36;8.23;;;2.77;;
5357;SDS011;2702;51.014;7.170;2023-08-06T20:10:03;7.47;;;3.20;;
5357;SDS011;2702;51.014;7.170;2023-08-06T20:12:29;6.83;;;2.80;;
5357;SDS011;2702;51.014;7.170;2023-08-06T20:14:55;6.00;;;2.63;;
5357;SDS011;2702;51.014;7.170;2023-08-06T20:17:22;4.13;;;2.70;;
5357;SDS011;2702;51.014;7.170;2023-08-06T20:19:48;5.73;;;2.90;;
5357;SDS011;2702;51.014;7.170;2023-08-06T20:22:14;7.47;;;2.60;;
5357;SDS011;2702;51.014;7.170;2023-08-06T20:24:40;7.07;;;2.73;;
5357;SDS011;2702;51.014;7.170;2023-08-06T20:27:07;5.47;;;2.30;;
5357;SDS011;2702;51.014;7.170;2023-08-06T20:29:33;5.50;;;3.10;;
5357;SDS011;2702;51.014;7.170;2023-08-06T20:32:01;8.40;;;3.77;;
5357;SDS011;2702;51.014;7.170;2023-08-06T20:34:27;6.30;;;3.10;;
5357;SDS011;2702;51.014;7.170;2023-08-06T20:36:53;5.03;;;3.43;;
5357;SDS011;2702;51.014;7.170;2023-08-06T20:39:20;9.43;;;4.17;;
5357;SDS011;2702;51.014;7.170;2023-08-06T20:41:46;7.03;;;3.27;;
5357;SDS011;2702;51.014;7.170;2023-08-06T20:44:12;4.13;;;2.80;;
5357;SDS011;2702;51.014;7.170;2023-08-06T20:46:39;8.17;;;3.70;;
5357;SDS011;2702;51.014;7.170;2023-08-06T20:49:05;6.57;;;4.13;;
5357;SDS011;2702;51.014;7.170;2023-08-06T20:51:31;6.80;;;3.90;;
5357;SDS011;2702;51.014;7.170;2023-08-06T20:53:57;6.40;;;3.93;;
5357;SDS011;2702;51.014;7.170;2023-08-06T20:56:23;7.23;;;3.73;;
5357;SDS011;2702;51.014;7.170;2023-08-06T20:58:49;13.87;;;3.67;;
5357;SDS011;2702;51.014;7.170;2023-08-06T21:01:16;10.03;;;4.30;;
5357;SDS011;2702;51.014;7.170;2023-08-06T21:03:42;11.00;;;4.00;;
5357;SDS011;2702;51.014;7.170;2023-08-06T21:06:08;6.43;;;3.20;;
5357;SDS011;2702;51.014;7.170;2023-08-06T21:08:35;9.93;;;4.20;;
5357;SDS011;2702;51.014;7.170;2023-08-06T21:11:02;9.07;;;4.10;;
5357;SDS011;2702;51.014;7.170;2023-08-06T21:13:29;9.00;;;4.30;;
5357;SDS011;2702;51.014;7.170;2023-08-06T21:16:02;7.60;;;4.50;;
5357;SDS011;2702;51.014;7.170;2023-08-06T21:18:33;8.73;;;3.53;;
5357;SDS011;2702;51.014;7.170;2023-08-06T21:21:00;8.70;;;4.50;;
5357;SDS011;2702;51.014;7.170;2023-08-06T21:23:28;9.57;;;4.83;;
5357;SDS011;2702;51.014;7.170;2023-08-06T21:25:58;5.20;;;4.43;;
5357;SDS011;2702;51.014;7.170;2023-08-06T21:28:26;7.20;;;4.27;;
5357;SDS011;2702;51.014;7.170;2023-08-06T21:30:56;5.80;;;4.03;;
5357;SDS011;2702;51.014;7.170;2023-08-06T21:33:24;4.93;;;4.50;;
5357;SDS011;2702;51.014;7.170;2023-08-06T21:35:52;9.93;;;5.10;;
5357;SDS011;2702;51.014;7.170;2023-08-06T21:38:29;5.23;;;4.30;;
5357;SDS011;2702;51.014;7.170;2023-08-06T21:41:30;7.67;;;5.00;;
5357;SDS011;2702;51.014;7.170;2023-08-06T21:43:49;7.30;;;5.60;;
5357;SDS011;2702;51.014;7.170;2023-08-06T21:46:19;11.10;;;5.70;;
5357;SDS011;2702;51.014;7.170;2023-08-06T21:48:46;11.30;;;6.13;;
5357;SDS011;2702;51.014;7.170;2023-08-06T21:51:14;7.17;;;5.23;;
5357;SDS011;2702;51.014;7.170;2023-08-06T21:53:45;9.30;;;6.43;;
5357;SDS011;2702;51.014;7.170;2023-08-06T21:56:13;7.50;;;5.50;;
5357;SDS011;2702;51.014;7.170;2023-08-06T21:58:40;9.23;;;5.63;;
5357;SDS011;2702;51.014;7.170;2023-08-06T22:01:14;9.10;;;4.87;;
5357;SDS011;2702;51.014;7.170;2023-08-06T22:03:42;6.80;;;4.37;;
5357;SDS011;2702;51.014;7.170;2023-08-06T22:06:11;5.80;;;4.00;;
5357;SDS011;2702;51.014;7.170;2023-08-06T22:08:38;8.30;;;4.43;;
5357;SDS011;2702;51.014;7.170;2023-08-06T22:11:06;8.80;;;3.60;;
5357;SDS011;2702;51.014;7.170;2023-08-06T22:13:32;9.20;;;4.20;;
5357;SDS011;2702;51.014;7.170;2023-08-06T22:15:59;4.20;;;3.80;;
5357;SDS011;2702;51.014;7.170;2023-08-06T22:18:26;9.40;;;4.03;;
5357;SDS011;2702;51.014;7.170;2023-08-06T22:20:55;8.80;;;4.70;;
5357;SDS011;2702;51.014;7.170;2023-08-06T22:23:22;8.73;;;4.30;;
5357;SDS011;2702;51.014;7.170;2023-08-06T22:25:48;7.63;;;4.63;;
5357;SDS011;2702;51.014;7.170;2023-08-06T22:28:18;6.33;;;3.43;;
5357;SDS011;2702;51.014;7.170;2023-08-06T22:30:45;6.63;;;4.10;;
5357;SDS011;2702;51.014;7.170;2023-08-06T22:33:11;7.07;;;3.93;;
5357;SDS011;2702;51.014;7.170;2023-08-06T22:35:37;7.40;;;3.80;;
5357;SDS011;2702;51.014;7.170;2023-08-06T22:38:04;11.30;;;3.67;;
5357;SDS011;2702;51.014;7.170;2023-08-06T22:40:30;6.30;;;3.77;;
5357;SDS011;2702;51.014;7.170;2023-08-06T22:42:56;8.17;;;3.40;;
5357;SDS011;2702;51.014;7.170;2023-08-06T22:45:22;6.40;;;3.73;;
5357;SDS011;2702;51.014;7.170;2023-08-06T22:47:49;6.57;;;3.77;;
5357;SDS011;2702;51.014;7.170;2023-08-06T22:50:15;6.63;;;3.20;;
5357;SDS011;2702;51.014;7.170;2023-08-06T22:52:41;12.70;;;3.33;;
5357;SDS011;2702;51.014;7.170;2023-08-06T22:55:07;7.80;;;3.77;;
5357;SDS011;2702;51.014;7.170;2023-08-06T22:57:34;7.53;;;3.17;;
5357;SDS011;2702;51.014;7.170;2023-08-06T23:00:00;5.93;;;3.20;;
5357;SDS011;2702;51.014;7.170;2023-08-06T23:02:28;9.03;;;3.90;;
5357;SDS011;2702;51.014;7.170;2023-08-06T23:04:54;6.27;;;3.80;;
5357;SDS011;2702;51.014;7.170;2023-08-06T23:07:21;7.50;;;3.40;;
5357;SDS011;2702;51.014;7.170;2023-08-06T23:09:47;8.60;;;4.43;;
5357;SDS011;2702;51.014;7.170;2023-08-06T23:12:13;9.50;;;4.03;;
5357;SDS011;2702;51.014;7.170;2023-08-06T23:14:39;6.87;;;3.50;;
5357;SDS011;2702;51.014;7.170;2023-08-06T23:17:06;8.23;;;4.20;;
5357;SDS011;2702;51.014;7.170;2023-08-06T23:19:32;7.77;;;3.30;;
5357;SDS011;2702;51.014;7.170;2023-08-06T23:21:59;11.93;;;4.77;;
5357;SDS011;2702;51.014;7.170;2023-08-06T23:24:25;15.17;;;4.00;;
5357;SDS011;2702;51.014;7.170;2023-08-06T23:26:53;10.47;;;4.57;;
5357;SDS011;2702;51.014;7.170;2023-08-06T23:29:20;9.43;;;4.47;;
5357;SDS011;2702;51.014;7.170;2023-08-06T23:31:46;10.10;;;3.67;;
5357;SDS011;2702;51.014;7.170;2023-08-06T23:34:13;12.00;;;3.97;;
5357;SDS011;2702;51.014;7.170;2023-08-06T23:36:39;7.80;;;3.60;;
5357;SDS011;2702;51.014;7.170;2023-08-06T23:39:05;7.50;;;4.10;;
5357;SDS011;2702;51.014;7.170;2023-08-06T23:41:37;9.80;;;4.13;;
5357;SDS011;2702;51.014;7.170;2023-08-06T23:44:04;7.43;;;3.90;;
5357;SDS011;2702;51.014;7.170;2023-08-06T23:46:30;7.17;;;3.93;;
5357;SDS011;2702;51.014;7.170;2023-08-06T23:48:57;9.53;;;4.30;;
5357;SDS011;2702;51.014;7.170;2023-08-06T23:51:23;10.23;;;4.50;;
5357;SDS011;2702;51.014;7.170;2023-08-06T23:53:49;8.13;;;4.13;;
5357;SDS011;2702;51.014;7.170;2023-08-06T23:56:15;9.13;;;4.03;;
5357;SDS011;2702;51.014;7.170;2023-08-06T23:58:42;9.03;;;4.10;;
